Welcome to Northern Hawkes Bay. New Zealand.
PWS Header
      nz Flag



Hit Counter


W3C Valid W3C Valid logo


    Wairoa

Select any of the Stations below to visit their websites.










Historic Data from Weather Underground
Select the location of interest below. Wairoa is the default. Please have patience, this Data is slow to load in.
Northern Hawkes Bay Historical Data
Daily Summary for March 20, 2017 Units:  English    Metric   Both
« Previous Day
Next Day »
Daily Weekly Monthly Yearly Custom
  High: Low: Average:
Temperature: 79.2 °F 49.8 °F 62.2 °F
Dew Point: 62.1 °F 49.5 °F 54.5 °F
Humidity: 99% 43% 79%
Wind Speed: 10.7mph 0mph 3mph
Wind Gust: 15.2mph - -
Wind- - West
Pressure: 30.2 in 29.9 in -
Precipitation: 0 in    
Historical Graphs
 
 
Tabular Data for March 20, 2017
Time Temperature Dew Point Pressure Wind Wind Speed Wind Gust Humidity Rainfall Rate (Hourly) solar
00:03 51.6 °F 51.4 °F 30.2 in North 0.7 mph 5.4 mph 99% 0 in 0 W/m2
00:08 51.6 °F 51.4 °F 30.2 in North 3.1 mph 5.4 mph 99% 0 in 0 W/m2
00:13 51.6 °F 51.4 °F 30.2 in North 2.2 mph 3.8 mph 99% 0 in 0 W/m2
00:18 51.6 °F 51.4 °F 30.2 in North 2.2 mph 4.5 mph 99% 0 in 0 W/m2
00:23 51.8 °F 51.3 °F 30.2 in NNW 3.8 mph 6 mph 98% 0 in 0 W/m2
00:28 52 °F 51.4 °F 30.2 in NNW 3.8 mph 6.9 mph 98% 0 in 0 W/m2
00:33 52 °F 51.4 °F 30.2 in North 3.1 mph 6.9 mph 98% 0 in 0 W/m2
00:38 52.2 °F 51.6 °F 30.2 in North 3.1 mph 6.9 mph 98% 0 in 0 W/m2
00:43 52.2 °F 51.3 °F 30.2 in North 3.1 mph 4.5 mph 97% 0 in 0 W/m2
00:48 52 °F 51.3 °F 30.2 in NNW 3.1 mph 6.9 mph 97% 0 in 0 W/m2
00:53 51.8 °F 50.7 °F 30.2 in NNW 3.1 mph 6.9 mph 96% 0 in 0 W/m2
00:58 51.8 °F 50.7 °F 30.2 in NNW 4.5 mph 7.6 mph 96% 0 in 0 W/m2
01:03 51.8 °F 51.1 °F 30.2 in NNW 3.8 mph 8.3 mph 97% 0 in 0 W/m2
01:08 52 °F 51.3 °F 30.2 in NW 4.5 mph 8.3 mph 97% 0 in 0 W/m2
01:13 52.2 °F 51.3 °F 30.2 in NW 3.1 mph 8.3 mph 97% 0 in 0 W/m2
01:18 52.2 °F 51.3 °F 30.2 in NW 3.8 mph 8.3 mph 97% 0 in 0 W/m2
01:23 52.2 °F 51.3 °F 30.2 in NNW 5.4 mph 7.6 mph 97% 0 in 0 W/m2
01:28 52.2 °F 51.1 °F 30.2 in NNW 3.8 mph 7.6 mph 96% 0 in 0 W/m2
01:33 52.2 °F 51.1 °F 30.2 in NNW 3.8 mph 8.3 mph 96% 0 in 0 W/m2
01:38 52.2 °F 51.1 °F 30.2 in NNW 3.1 mph 8.3 mph 96% 0 in 0 W/m2
01:43 52.2 °F 50.7 °F 30.2 in North 2.2 mph 6.9 mph 95% 0 in 0 W/m2
01:48 52.2 °F 50.7 °F 30.2 in North 3.1 mph 6 mph 95% 0 in 0 W/m2
01:58 52.2 °F 50.7 °F 30.2 in NNW 4.5 mph 8.3 mph 95% 0 in 0 W/m2
02:03 52.2 °F 50.7 °F 30.2 in NNW 3.8 mph 8.3 mph 95% 0 in 0 W/m2
02:08 52.2 °F 50.7 °F 30.2 in NNW 4.5 mph 7.6 mph 95% 0 in 0 W/m2
02:13 52 °F 50.5 °F 30.2 in NNW 3.8 mph 7.6 mph 95% 0 in 0 W/m2
02:18 52 °F 50.5 °F 30.2 in NNW 3.1 mph 8.3 mph 95% 0 in 0 W/m2
02:23 51.8 °F 50.4 °F 30.2 in NNW 3.8 mph 8.3 mph 95% 0 in 0 W/m2
02:28 51.8 °F 50.4 °F 30.2 in NNW 5.4 mph 7.6 mph 95% 0 in 0 W/m2
02:33 51.8 °F 50.7 °F 30.2 in NNW 4.5 mph 7.6 mph 96% 0 in 0 W/m2
02:38 51.8 °F 50.7 °F 30.2 in NNW 4.5 mph 7.6 mph 96% 0 in 0 W/m2
02:48 51.8 °F 50.7 °F 30.1 in NNW 6 mph 7.6 mph 96% 0 in 0 W/m2
02:53 51.8 °F 50.7 °F 30.1 in NNW 4.5 mph 8.3 mph 96% 0 in 0 W/m2
02:58 51.8 °F 50.7 °F 30.1 in NNW 3.8 mph 8.3 mph 96% 0 in 0 W/m2
03:03 51.8 °F 50.7 °F 30.1 in NNW 3.1 mph 7.6 mph 96% 0 in 0 W/m2
03:09 51.8 °F 50.7 °F 30.1 in NNW 2.2 mph 6.9 mph 96% 0 in 0 W/m2
03:14 51.8 °F 50.7 °F 30.1 in Calm   6.9 mph 96% 0 in 0 W/m2
03:19 51.6 °F 50.7 °F 30.1 in Calm   6 mph 97% 0 in 0 W/m2
03:24 51.6 °F 50.7 °F 30.1 in NNW 1.6 mph 6 mph 97% 0 in 0 W/m2
03:29 51.6 °F 50.7 °F 30.1 in NNW 2.2 mph 6 mph 97% 0 in 0 W/m2
03:34 51.6 °F 50.7 °F 30.1 in NW 1.6 mph 6.9 mph 97% 0 in 0 W/m2
03:39 51.4 °F 50.5 °F 30.1 in Calm   6.9 mph 97% 0 in 0 W/m2
03:44 51.3 °F 50.4 °F 30.1 in NNW 2.2 mph 4.5 mph 97% 0 in 0 W/m2
03:49 51.4 °F 50.5 °F 30.1 in Calm   4.5 mph 97% 0 in 0 W/m2
03:54 51.4 °F 50.5 °F 30.1 in Calm   4.5 mph 97% 0 in 0 W/m2
03:59 51.3 °F 50.4 °F 30.1 in NNW 2.2 mph 6 mph 97% 0 in 0 W/m2
04:04 51.4 °F 50.5 °F 30.1 in North 3.1 mph 7.6 mph 97% 0 in 0 W/m2
04:09 51.3 °F 50.7 °F 30.1 in North 4.5 mph 7.6 mph 98% 0 in 0 W/m2
04:14 51.1 °F 50.5 °F 30.1 in NNW 3.8 mph 6.9 mph 98% 0 in 0 W/m2
04:19 51.3 °F 50.4 °F 30.1 in NNW 3.1 mph 6.9 mph 97% 0 in 0 W/m2
04:24 51.3 °F 50.4 °F 30.1 in NNW 2.2 mph 6.9 mph 97% 0 in 0 W/m2
04:29 51.1 °F 50.4 °F 30.1 in Calm   6 mph 97% 0 in 0 W/m2
04:34 50.9 °F 50.2 °F 30.1 in Calm   4.5 mph 97% 0 in 0 W/m2
04:39 50.7 °F 49.8 °F 30.1 in NNE 1.6 mph 3.8 mph 97% 0 in 0 W/m2
04:44 50.7 °F 49.8 °F 30.1 in Calm   3.8 mph 97% 0 in 0 W/m2
04:51 50.4 °F 49.5 °F 30.1 in Calm   3.8 mph 97% 0 in 0 W/m2
04:56 50.2 °F 49.5 °F 30.1 in Calm     97% 0 in 0 W/m2
05:01 50 °F 49.5 °F 30.1 in Calm   3.1 mph 98% 0 in 0 W/m2
05:06 50 °F 49.5 °F 30.1 in Calm   3.1 mph 98% 0 in 0 W/m2
05:11 50 °F 49.5 °F 30.1 in Calm   1.6 mph 98% 0 in 0 W/m2
05:16 50 °F 49.5 °F 30.1 in NNW 3.1 mph 4.5 mph 98% 0 in 0 W/m2
05:22 50.2 °F 49.6 °F 30.1 in NNW 3.1 mph 5.4 mph 98% 0 in 0 W/m2
05:27 50.4 °F 50.2 °F 30.1 in NW 3.1 mph 6 mph 99% 0 in 0 W/m2
05:32 50.4 °F 50.2 °F 30.1 in NNW 3.1 mph 6 mph 99% 0 in 0 W/m2
05:37 50.5 °F 50.4 °F 30.1 in North 3.1 mph 5.4 mph 99% 0 in 0 W/m2
05:42 50.5 °F 50.4 °F 30.1 in North 3.1 mph 6 mph 99% 0 in 0 W/m2
05:47 50.7 °F 50.5 °F 30.1 in North 3.1 mph 6 mph 99% 0 in 0 W/m2
05:52 50.5 °F 50.4 °F 30.1 in NNW 3.1 mph 6 mph 99% 0 in 0 W/m2
05:57 50.5 °F 50.4 °F 30.1 in NNW 4.5 mph 6 mph 99% 0 in 0 W/m2
06:02 50.4 °F 50.2 °F 30.1 in NNW 3.8 mph 6.9 mph 99% 0 in 0 W/m2
06:19 50 °F 49.6 °F 30.1 in NNW 3.1 mph 6.9 mph 99% 0 in 0 W/m2
06:24 50 °F 49.6 °F 30.1 in Calm   6 mph 99% 0 in 0 W/m2
06:29 49.8 °F 49.6 °F 30.1 in Calm   4.5 mph 99% 0 in 0 W/m2
06:34 49.8 °F 49.6 °F 30.1 in NNW 0.7 mph 3.8 mph 99% 0 in 0 W/m2
06:39 49.8 °F 49.6 °F 30.1 in NNW 0.7 mph 3.1 mph 99% 0 in 0 W/m2
06:44 50 °F 49.6 °F 30.1 in NNW 0.7 mph 6 mph 99% 0 in 0 W/m2
06:49 50.2 °F 49.8 °F 30.1 in NNW 2.2 mph 6 mph 99% 0 in 0 W/m2
06:54 50.4 °F 50.2 °F 30 in North 1.6 mph 6 mph 99% 0 in 0 W/m2
06:59 50.4 °F 50.2 °F 30 in North 2.2 mph 6.9 mph 99% 0 in 0 W/m2
07:04 50.4 °F 50.2 °F 30 in NNW 2.2 mph 6.9 mph 99% 0 in 0 W/m2
07:09 50.2 °F 49.8 °F 30 in Calm   3.8 mph 99% 0 in 1 W/m2
07:14 50.2 °F 49.8 °F 30 in Calm   6.9 mph 99% 0 in 3 W/m2
07:19 50 °F 49.6 °F 30 in Calm   6.9 mph 99% 0 in 6 W/m2
07:24 50 °F 49.6 °F 30 in North 3.1 mph 6.9 mph 99% 0 in 12 W/m2
07:29 50 °F 49.6 °F 30 in Calm   6.9 mph 99% 0 in 16 W/m2
07:34 50 °F 49.6 °F 30 in Calm   5.4 mph 99% 0 in 22 W/m2
07:39 50.2 °F 49.8 °F 30 in Calm   5.4 mph 99% 0 in 34 W/m2
07:44 50.5 °F 50.4 °F 30 in NNW 4.5 mph 6 mph 99% 0 in 90 W/m2
07:49 51.1 °F 50.7 °F 30 in Calm   6.9 mph 99% 0 in 74 W/m2
07:54 51.3 °F 51.1 °F 30 in NNW 3.8 mph 6.9 mph 99% 0 in 143 W/m2
07:59 52.2 °F 51.6 °F 30 in NNW 5.4 mph 7.6 mph 98% 0 in 148 W/m2
08:04 52.9 °F 52.2 °F 30 in NNW 4.5 mph 7.6 mph 97% 0 in 153 W/m2
08:09 53.2 °F 52.2 °F 30 in NNW 3.1 mph 7.6 mph 96% 0 in 86 W/m2
08:14 53.2 °F 52 °F 30 in NW 5.4 mph 8.3 mph 95% 0 in 108 W/m2
08:29 53.8 °F 51.8 °F 30 in NW 4.5 mph 8.3 mph 93% 0 in 108 W/m2
08:34 54 °F 52 °F 30 in NNW 3.8 mph 8.3 mph 93% 0 in 140 W/m2
08:39 54.5 °F 52.2 °F 30 in NNW 3.8 mph 7.6 mph 92% 0 in 164 W/m2
08:44 55 °F 52.9 °F 30 in NW 6.9 mph 10.7 mph 92% 0 in 168 W/m2
08:49 55.2 °F 52.5 °F 30 in NW 5.4 mph 10.7 mph 91% 0 in 151 W/m2
08:54 55.4 °F 52.5 °F 30 in NNW 6.9 mph 9.8 mph 90% 0 in 219 W/m2
08:59 56.3 °F 53.4 °F 30 in NNW 6 mph 9.8 mph 90% 0 in 251 W/m2
09:04 57.2 °F 53.8 °F 30 in NNW 7.6 mph 10.7 mph 88% 0 in 253 W/m2
09:09 58.3 °F 54.3 °F 30 in NNW 4.5 mph 10.7 mph 87% 0 in 239 W/m2
09:14 58.6 °F 54.1 °F 30 in NNW 4.5 mph 9.8 mph 85% 0 in 242 W/m2
09:20 59.2 °F 54.3 °F 30 in NNW 7.6 mph 9.8 mph 84% 0 in 278 W/m2
09:25 59.5 °F 54.7 °F 30 in NNW 7.6 mph 9.8 mph 84% 0 in 253 W/m2
09:30 60.1 °F 54.9 °F 30 in NNW 6 mph 9.8 mph 83% 0 in 259 W/m2
09:35 61 °F 55.6 °F 30 in NNW 5.4 mph 9.8 mph 82% 0 in 270 W/m2
09:40 61.7 °F 56.1 °F 30 in NNW 4.5 mph 9.2 mph 82% 0 in 267 W/m2
09:46 62.6 °F 55.9 °F 30 in North 3.8 mph 8.3 mph 79% 0 in 221 W/m2
09:51 63.1 °F 56.1 °F 30 in North 3.8 mph 8.3 mph 78% 0 in 223 W/m2
09:56 63.7 °F 56.5 °F 30 in NNW 3.1 mph 7.6 mph 77% 0 in 221 W/m2
10:01 64 °F 56.3 °F 30 in NNW 4.5 mph 8.3 mph 76% 0 in 254 W/m2
10:06 64.8 °F 57 °F 30 in NNW 5.4 mph 9.2 mph 76% 0 in 262 W/m2
10:11 65.3 °F 57.6 °F 30 in NNW 5.4 mph 9.2 mph 76% 0 in 288 W/m2
10:16 65.7 °F 57.6 °F 30 in North 6 mph 9.8 mph 75% 0 in 285 W/m2
10:22 66.2 °F 57.7 °F 30 in NNW 6 mph 9.8 mph 74% 0 in 315 W/m2
10:27 66.7 °F 57.7 °F 30 in NNW 6.9 mph 9.2 mph 73% 0 in 275 W/m2
10:32 67.1 °F 57.7 °F 30 in NNW 2.2 mph 9.2 mph 72% 0 in 435 W/m2
10:48 68.9 °F 57.6 °F 30 in North 5.4 mph 10.7 mph 67% 0 in 265 W/m2
10:53 69.1 °F 57.4 °F 30 in North 6 mph 11.4 mph 66% 0 in 261 W/m2
10:58 69.3 °F 57 °F 30 in North 5.4 mph 11.4 mph 65% 0 in 269 W/m2
11:03 69.1 °F 56.5 °F 30 in NNW 3.8 mph 11.4 mph 64% 0 in 324 W/m2
11:20 70.2 °F 57 °F 30 in North 4.5 mph 7.6 mph 63% 0 in 345 W/m2
11:25 70.9 °F 57.2 °F 30 in North 1.6 mph 8.3 mph 62% 0 in 247 W/m2
11:30 71.4 °F 57.7 °F 30 in North 4.5 mph 8.3 mph 62% 0 in 454 W/m2
11:35 72.3 °F 57.2 °F 30 in North 6 mph 10.7 mph 59% 0 in 538 W/m2
11:40 73 °F 56.8 °F 30 in North 4.5 mph 10.7 mph 57% 0 in 543 W/m2
11:45 73.2 °F 56.7 °F 30 in North 4.5 mph 10.7 mph 56% 0 in 569 W/m2
11:50 73.9 °F 56.8 °F 30 in North 5.4 mph 9.2 mph 55% 0 in 510 W/m2
11:55 73.4 °F 56.3 °F 30 in North 4.5 mph 10.7 mph 55% 0 in 469 W/m2
12:00 73.8 °F 56.7 °F 30 in North 5.4 mph 10.7 mph 55% 0 in 429 W/m2
12:05 74.1 °F 57.6 °F 30 in North 3.8 mph 9.2 mph 56% 0 in 493 W/m2
12:10 75 °F 57.7 °F 30 in NNW 4.5 mph 9.2 mph 55% 0 in 415 W/m2
12:15 74.8 °F 57.6 °F 30 in NNW 6 mph 8.3 mph 55% 0 in 366 W/m2
12:20 74.8 °F 57 °F 30 in NW 4.5 mph 9.8 mph 54% 0 in 359 W/m2
12:25 74.8 °F 54.3 °F 30 in NW 7.6 mph 11.4 mph 49% 0 in 366 W/m2
12:30 74.3 °F 53.4 °F 30 in NW 1.6 mph 11.4 mph 48% 0 in 387 W/m2
12:35 74.8 °F 54.3 °F 30 in NW 8.3 mph 10.7 mph 49% 0 in 394 W/m2
12:40 74.3 °F 52.9 °F 30 in NW 8.3 mph 11.4 mph 47% 0 in 370 W/m2
12:45 74.1 °F 53.2 °F 30 in NW 6 mph 11.4 mph 48% 0 in 339 W/m2
12:50 74.1 °F 53.2 °F 30 in NW 3.1 mph 10.7 mph 48% 0 in 304 W/m2
12:55 74.5 °F 54.7 °F 30 in NW 4.5 mph 10.7 mph 50% 0 in 265 W/m2
13:00 74.1 °F 53.8 °F 30 in NW 5.4 mph 13 mph 49% 0 in 282 W/m2
13:05 74.5 °F 54.7 °F 30 in NW 3.1 mph 13 mph 50% 0 in 310 W/m2
13:10 74.5 °F 54.1 °F 30 in NW 2.2 mph 9.8 mph 49% 0 in 388 W/m2
13:15 75.2 °F 54.1 °F 30 in NNW 7.6 mph 12.1 mph 48% 0 in 420 W/m2
13:20 75.4 °F 53.2 °F 30 in NW 7.6 mph 15.2 mph 46% 0 in 672 W/m2
13:25 76.3 °F 54.7 °F 30 in NW 3.8 mph 15.2 mph 47% 0 in 469 W/m2
13:30 76.8 °F 54.5 °F 30 in NW 6 mph 9.8 mph 46% 0 in 379 W/m2
13:35 76.3 °F 54 °F 30 in WNW 7.6 mph 12.1 mph 46% 0 in 336 W/m2
13:40 75.9 °F 53.8 °F 30 in NW 10.7 mph 13.6 mph 46% 0 in 386 W/m2
13:45 75.4 °F 53.2 °F 30 in NNW 7.6 mph 14.5 mph 46% 0 in 402 W/m2
13:50 75.2 °F 53.1 °F 30 in NW 6.9 mph 14.5 mph 46% 0 in 361 W/m2
13:55 75.2 °F 53.1 °F 30 in NW 9.2 mph 13.6 mph 46% 0 in 302 W/m2
14:00 74.5 °F 53.4 °F 30 in NW 7.6 mph 13.6 mph 48% 0 in 312 W/m2
14:05 74.5 °F 53.1 °F 29.9 in NW 4.5 mph 13.6 mph 47% 0 in 409 W/m2
14:10 75 °F 54 °F 29.9 in NW 4.5 mph 10.7 mph 48% 0 in 296 W/m2
14:16 74.8 °F 54 °F 29.9 in NW 5.4 mph 13.6 mph 48% 0 in 349 W/m2
14:21 75.4 °F 53.2 °F 29.9 in NW 7.6 mph 13.6 mph 46% 0 in 392 W/m2
14:26 75.4 °F 53.2 °F 29.9 in NW 2.2 mph 13.6 mph 46% 0 in 292 W/m2
14:31 75.2 °F 52.3 °F 29.9 in NW 6.9 mph 13.6 mph 45% 0 in 333 W/m2
14:36 75.4 °F 53.2 °F 29.9 in NW 4.5 mph 13.6 mph 46% 0 in 304 W/m2
14:41 75.4 °F 53.2 °F 29.9 in NW 4.5 mph 11.4 mph 46% 0 in 293 W/m2
14:46 75.4 °F 52.5 °F 29.9 in NW 4.5 mph 13 mph 45% 0 in 330 W/m2
14:51 75.6 °F 52.9 °F 29.9 in WNW 6.9 mph 13 mph 45% 0 in 334 W/m2
14:56 75.7 °F 53.4 °F 29.9 in NW 2.2 mph 12.1 mph 46% 0 in 321 W/m2
15:01 76.5 °F 54.1 °F 29.9 in NW 5.4 mph 9.8 mph 46% 0 in 344 W/m2
15:06 76.6 °F 53.8 °F 29.9 in NW 5.4 mph 7.6 mph 45% 0 in 389 W/m2
15:14 77.5 °F 54.7 °F 29.9 in NW 3.8 mph 8.3 mph 45% 0 in 351 W/m2
15:19 77.2 °F 53.6 °F 29.9 in NNW 3.1 mph 8.3 mph 44% 0 in 297 W/m2
15:24 77.4 °F 53.8 °F 29.9 in NW 6 mph 9.2 mph 44% 0 in 283 W/m2
15:29 77 °F 53.4 °F 29.9 in NW 6.9 mph 11.4 mph 44% 0 in 267 W/m2
15:34 76.6 °F 53.8 °F 29.9 in NW 6.9 mph 12.1 mph 45% 0 in 253 W/m2
15:39 76.3 °F 54 °F 29.9 in NW 5.4 mph 12.1 mph 46% 0 in 240 W/m2
15:44 76.3 °F 54 °F 29.9 in NW 2.2 mph 9.8 mph 46% 0 in 236 W/m2
15:49 76.3 °F 54.7 °F 29.9 in NW 3.8 mph 9.8 mph 47% 0 in 248 W/m2
15:54 76.8 °F 56.1 °F 29.9 in NNW 3.1 mph 9.2 mph 49% 0 in 259 W/m2
15:59 77.2 °F 54.9 °F 29.9 in North 6 mph 9.2 mph 46% 0 in 371 W/m2
16:04 77.5 °F 55.2 °F 29.9 in North 9.2 mph 10.7 mph 46% 0 in 288 W/m2
16:09 77.2 °F 54.9 °F 29.9 in North 4.5 mph 10.7 mph 46% 0 in 245 W/m2
16:14 76.8 °F 55 °F 29.9 in North 6 mph 10.7 mph 47% 0 in 227 W/m2
16:20 76.5 °F 55.2 °F 29.9 in North 5.4 mph 8.3 mph 48% 0 in 221 W/m2
16:25 76.6 °F 56.1 °F 29.9 in NNW 1.6 mph 8.3 mph 49% 0 in 240 W/m2
16:30 77.2 °F 54.9 °F 29.9 in NNW 4.5 mph 7.6 mph 46% 0 in 251 W/m2
16:36 77.4 °F 54.3 °F 29.9 in NNW 3.1 mph 8.3 mph 45% 0 in 322 W/m2
16:41 78.4 °F 55.9 °F 29.9 in North 4.5 mph 8.3 mph 46% 0 in 284 W/m2
16:46 78.6 °F 55.6 °F 29.9 in North 5.4 mph 6 mph 45% 0 in 275 W/m2
16:51 78.6 °F 55.6 °F 29.9 in NNW 0.7 mph 7.6 mph 45% 0 in 265 W/m2
16:56 78.8 °F 55 °F 29.9 in NNW 0.7 mph 7.6 mph 44% 0 in 261 W/m2
17:01 79.2 °F 54.9 °F 29.9 in NNE 3.8 mph 7.6 mph 43% 0 in 186 W/m2
17:06 78.3 °F 55.2 °F 29.9 in NNE 3.1 mph 5.4 mph 45% 0 in 151 W/m2
17:11 77.9 °F 54.9 °F 29.9 in NNE 1.6 mph 5.4 mph 45% 0 in 145 W/m2
17:16 77.5 °F 55.2 °F 29.9 in NNE 1.6 mph 4.5 mph 46% 0 in 138 W/m2
17:21 77 °F 54.7 °F 29.9 in North 2.2 mph 5.4 mph 46% 0 in 131 W/m2
17:26 77.2 °F 55.9 °F 29.9 in Calm   5.4 mph 48% 0 in 127 W/m2
17:31 77.2 °F 56.7 °F 29.9 in NE 3.1 mph 3.8 mph 49% 0 in 126 W/m2
17:36 77 °F 56.5 °F 29.9 in Calm   3.8 mph 49% 0 in 127 W/m2
17:41 77.2 °F 56.7 °F 29.9 in Calm   3.8 mph 49% 0 in 123 W/m2
17:46 77.5 °F 56.8 °F 29.9 in Calm     49% 0 in 123 W/m2
17:51 77.4 °F 59.5 °F 29.9 in South 5.4 mph 8.3 mph 54% 0 in 130 W/m2
17:56 74.3 °F 61.9 °F 29.9 in SSE 6.9 mph 9.2 mph 65% 0 in 120 W/m2
18:01 72.3 °F 60.8 °F 29.9 in SSE 3.8 mph 9.2 mph 67% 0 in 151 W/m2
18:06 73 °F 61.9 °F 29.9 in SSE 2.2 mph 9.2 mph 68% 0 in 133 W/m2
18:11 73.4 °F 61.3 °F 29.9 in SSE 2.2 mph 7.6 mph 66% 0 in 107 W/m2
18:16 72.3 °F 61.2 °F 29.9 in SSE 1.6 mph 6 mph 68% 0 in 94 W/m2
18:21 71.8 °F 61.2 °F 29.9 in Calm   6 mph 69% 0 in 86 W/m2
18:26 71.2 °F 61 °F 29.9 in SE 3.1 mph 4.5 mph 70% 0 in 77 W/m2
18:31 71.4 °F 61.5 °F 29.9 in SE 1.6 mph 4.5 mph 71% 0 in 74 W/m2
18:36 71.2 °F 61.3 °F 29.9 in Calm   6 mph 71% 0 in 60 W/m2
18:41 70.9 °F 61 °F 29.9 in Calm   6 mph 71% 0 in 50 W/m2
18:46 70.3 °F 61 °F 29.9 in SSE 2.2 mph 3.8 mph 72% 0 in 44 W/m2
18:51 70.3 °F 61 °F 29.9 in SSE 3.1 mph 4.5 mph 72% 0 in 37 W/m2
18:56 69.8 °F 61.2 °F 29.9 in SSE 0.7 mph 4.5 mph 74% 0 in 31 W/m2
19:01 69.3 °F 61.9 °F 29.9 in SSE 0.7 mph 3.8 mph 77% 0 in 24 W/m2
19:06 68.7 °F 62.1 °F 29.9 in Calm   4.5 mph 79% 0 in 18 W/m2
19:11 68.2 °F 61.9 °F 29.9 in SSW 3.1 mph 4.5 mph 80% 0 in 13 W/m2
19:16 67.1 °F 62.1 °F 29.9 in South 3.1 mph 5.4 mph 84% 0 in 10 W/m2
19:21 66.4 °F 61.3 °F 29.9 in South 3.1 mph 5.4 mph 84% 0 in 6 W/m2
19:26 66 °F 61.3 °F 29.9 in SSW 0.7 mph 5.4 mph 85% 0 in 3 W/m2
19:31 65.8 °F 61.5 °F 29.9 in SSW 2.2 mph 5.4 mph 86% 0 in 1 W/m2
19:36 65.3 °F 61.3 °F 29.9 in SW 3.1 mph 4.5 mph 87% 0 in 0 W/m2
19:41 64.9 °F 61 °F 29.9 in SSW 3.1 mph 4.5 mph 87% 0 in 0 W/m2
19:46 64.6 °F 60.6 °F 29.9 in SSW 2.2 mph 4.5 mph 87% 0 in 0 W/m2
19:51 64 °F 59.7 °F 29.9 in Calm   3.8 mph 86% 0 in 0 W/m2
19:56 63.7 °F 59.4 °F 29.9 in Calm   3.1 mph 86% 0 in 0 W/m2
20:01 63.5 °F 59.4 °F 29.9 in Calm   2.2 mph 86% 0 in 0 W/m2
20:06 63.1 °F 58.8 °F 29.9 in Calm     86% 0 in 0 W/m2
20:11 63 °F 58.6 °F 29.9 in Calm     86% 0 in 0 W/m2
20:16 62.6 °F 58.5 °F 29.9 in Calm     86% 0 in 0 W/m2
20:21 62.6 °F 58.6 °F 29.9 in Calm   3.8 mph 87% 0 in 0 W/m2
20:26 62.4 °F 58.8 °F 29.9 in Calm   3.8 mph 88% 0 in 0 W/m2
20:31 62.2 °F 58.6 °F 29.9 in Calm     88% 0 in 0 W/m2
20:36 62.1 °F 58.5 °F 29.9 in Calm     88% 0 in 0 W/m2
20:41 61.9 °F 58.3 °F 29.9 in Calm     88% 0 in 0 W/m2
20:46 61.5 °F 57.9 °F 29.9 in Calm     88% 0 in 0 W/m2
20:51 61.2 °F 57.6 °F 29.9 in Calm     88% 0 in 0 W/m2
20:56 61.2 °F 58.3 °F 29.9 in Calm     90% 0 in 0 W/m2
21:01 60.8 °F 57.9 °F 29.9 in Calm     90% 0 in 0 W/m2
21:06 60.4 °F 57.7 °F 29.9 in Calm     91% 0 in 0 W/m2
21:11 60.1 °F 57.6 °F 29.9 in Calm     91% 0 in 0 W/m2
21:16 60.3 °F 57.9 °F 29.9 in Calm     92% 0 in 0 W/m2
21:26 59.9 °F 57.9 °F 29.9 in Calm     93% 0 in 0 W/m2
21:36 59.9 °F 58.3 °F 29.9 in Calm     94% 0 in 0 W/m2
21:41 59.7 °F 57.9 °F 29.9 in Calm     94% 0 in 0 W/m2
21:46 59.4 °F 57.6 °F 29.9 in Calm     94% 0 in 0 W/m2
21:51 59 °F 57.4 °F 29.9 in Calm     94% 0 in 0 W/m2
21:57 58.6 °F 57.2 °F 29.9 in Calm     95% 0 in 0 W/m2
22:02 58.8 °F 57.4 °F 29.9 in Calm     95% 0 in 0 W/m2
22:07 58.6 °F 57.6 °F 29.9 in Calm     96% 0 in 0 W/m2
22:12 58.5 °F 57.4 °F 29.9 in Calm     96% 0 in 0 W/m2
22:14 58.5 °F 57.4 °F 29.9 in North 0.7 mph 2.2 mph 96% 0 in 0 W/m2
22:19 58.3 °F 57.2 °F 29.9 in Calm   3.1 mph 96% 0 in 0 W/m2
22:24 57.9 °F 57 °F 29.9 in Calm   3.1 mph 97% 0 in 0 W/m2
22:29 57.7 °F 56.8 °F 29.9 in Calm     97% 0 in 0 W/m2
22:34 57.6 °F 56.7 °F 29.9 in Calm     97% 0 in 0 W/m2
22:39 57.4 °F 56.5 °F 29.9 in Calm     97% 0 in 0 W/m2
22:44 57.2 °F 56.5 °F 29.9 in Calm   1.6 mph 97% 0 in 0 W/m2
22:49 57.6 °F 56.7 °F 29.9 in Calm   1.6 mph 97% 0 in 0 W/m2
22:54 57.4 °F 56.8 °F 29.9 in Calm     98% 0 in 0 W/m2
22:59 57.2 °F 56.7 °F 29.9 in Calm     98% 0 in 0 W/m2
23:04 57 °F 56.8 °F 29.9 in Calm     99% 0 in 0 W/m2
23:09 56.8 °F 56.7 °F 29.9 in WNW 2.2 mph 3.8 mph 99% 0 in 0 W/m2
23:14 56.8 °F 56.7 °F 29.9 in NW 2.2 mph 4.5 mph 99% 0 in 0 W/m2
23:19 56.8 °F 56.7 °F 29.9 in Calm   4.5 mph 99% 0 in 0 W/m2
23:24 56.5 °F 56.1 °F 29.9 in Calm   3.1 mph 99% 0 in 0 W/m2
23:29 56.5 °F 56.1 °F 29.9 in Calm     99% 0 in 0 W/m2
23:34 56.7 °F 56.5 °F 29.9 in Calm     99% 0 in 0 W/m2
23:39 56.7 °F 56.5 °F 29.9 in North 2.2 mph 3.1 mph 99% 0 in 0 W/m2
23:44 56.7 °F 56.5 °F 29.9 in Calm   3.1 mph 99% 0 in 0 W/m2
23:49 56.7 °F 56.5 °F 29.9 in Calm   0.7 mph 99% 0 in 0 W/m2
23:54 56.7 °F 56.5 °F 29.9 in NNW 2.2 mph 3.8 mph 99% 0 in 0 W/m2
23:59 56.7 °F 56.5 °F 29.9 in Calm   3.8 mph 99% 0 in 0 W/m2
Northern Hawkes Bay. New Zealand Historic Data
Compliments of Weather Underground - 2 mb